Decoded Metar for KXNO ( in ) (IATA:) | Meteo·Mobile Aviation Weather
aviador You're here:

KXNO Decoded Metar

in
Report Time2018-11-18 23:56:00
UTC Time2018-11-19 01:00:06
Flight Rules mvfr MVFR
WindCalm
Visibility9999 m
Phenomena:N/A
Clouds:Overcast 028 Hf
Expected CloudBase > 400 ft AGL from Temp-Dew spread
Ceiling2,800 ft
Temp14°C
Dew Point13°C (94% RH)
QNH1023 hPa
Raw Report
METAR KXNO 182356Z AUTO 00000KT 10SM OVC028 14/13 A3021 RMK AO2 SLP233
T01390133 10182 20137 53001 $=

Extra information for KXNO:More info

Social comments